Open Full Screen Window  High Contrast Mode
Wind Gusting 16 knots
07
June 27, 2016 5:02 PM CDT
Weather Information
Wind Direction
  270 °
Wind Speed
  07 kt (8 mph)
Wind Gust
  16 kt (18 mph)
Altimeter
29.98 in
Visibility
10 SM
Temperature
32° C
90° F
Dewpoint
13° C
55° F
Humidity
31%
Sky Condition
Clear
VFR

METAR KAXV 272202Z AUTO 27007G16KT 10SM CLR 32/13 A2998 RMK AO2

*Background is not an actual portrayal of the airport.